Hayden, IN

08:03 PM EDT ar Hydref 31, 2014 (GMT -0400)
Reddington | Change Station
CLOSE
Current Station
Personal Weather Stations
Location: Seymour, IN
Elevation: 630 ft
Nearby Weather Stations
Active Advisory: Freeze Warning Active Notice: Public Information Statement

Elev 630 ft 39.03 °N, 85.84 °W | Updated 8 minutes ago

Glaw
Glaw
35.1 °F
Feels Like 29 °F
N
8.0
Gwynt Cyfnewidiol Gwynt from GwGGw
Gusts 11.0 mph

Heddiw
High -- | Low -- °F
--% Chance of Precip.
Yesterday
High -- | Low -- °F
Precip. -- mod
8:09 AM 6:43 PM
First Quarter, 60% visible
Gwasgedd 30.04 mod
Gwelededd 5.0 Milltiroedd
Clouds Cymylog 1100 ft
Oerfel Gwynt 29 °F
Gwlithbwynt 34 °F
Lleithder 94%
Rainfall 0.14 mod
Snow Depth Not available.
UV 0 out of 12
Pollen .30 out of 12
Air Quality Not available.
Flu Activity Not available.
METAR KBAK 312345Z 33019KT G25 5SM -RABR OVC011 03/02 A3004

More Conditions Fewer Conditions

Gwasgedd 30.04 mod
Gwelededd 5.0 Milltiroedd
Clouds Cymylog 1100 ft
Oerfel Gwynt 29 °F
Gwlithbwynt 34 °F
Lleithder 94%
Rainfall 0.14 mod
Snow Depth Not available.
UV 0 out of 12
Pollen .30 out of 12
Air Quality Not available.
Flu Activity Not available.
METAR KBAK 312345Z 33019KT G25 5SM -RABR OVC011 03/02 A3004

More Conditions Fewer Conditions

10-Day Weather Forecast

Almanac

Astronomy

Oct. 31, 2014 Rise Set
Actual Time
Civil Twilight
Nautical Twilight
Astronomical Twilight
Moon
Length Of Visible Light
Length of Day
Tomorrow will be .
, % of the Moon is Illuminated

Today's Extremes

State Highs State Lows

Community

WunderPhotos

Upload Photos

1,766,788 photos uploaded!

WunderBlogs® & News

Nearby

Air Quality

  Air Quality AQ Index Pollutant
Not available.

Snow Depth

Station Depth Elevation

Earthquake Activity

City Distance Mag. Time & Date
Minimum magnitude displayed is 2.5.

Coastal Water Temperatures

Lle Tymheredd

Nearby Weather Stations